Time;durP1;ratioP1;P1;durP2;ratioP2;P2;SDS_P1;SDS_P2;PMS_P1;PMS_P2;Temp;Humidity;BMP_temperature;BMP_pressure;BME280_temperature;BME280_humidity;BME280_pressure;Samples;Min_cycle;Max_cycle;Signal;HPM_P1;HPM_P2
2021/01/06 00:00:19;;;;;;;10.77;7.57;;;5.00;99.90;;;;;;4153391;28;20104;-82
2021/01/06 00:02:20;;;;;;;11.90;7.57;;;5.00;99.90;;;;;;4147836;28;20041;-82
2021/01/06 00:04:43;;;;;;;11.02;7.43;;;5.00;99.90;;;;;;4148899;28;20109;-82
2021/01/06 00:06:44;;;;;;;9.77;7.05;;;5.00;99.90;;;;;;4172128;28;20025;-82
2021/01/06 00:08:45;;;;;;;9.77;6.97;;;5.00;99.90;;;;;;4161730;28;20092;-82
2021/01/06 00:11:03;;;;;;;9.35;6.78;;;5.00;99.90;;;;;;4172326;28;20029;-82
2021/01/06 00:13:04;;;;;;;11.30;7.78;;;5.00;99.90;;;;;;4164481;28;20033;-82
2021/01/06 00:15:06;;;;;;;9.68;6.72;;;5.00;99.90;;;;;;4174651;28;20035;-82
2021/01/06 00:17:21;;;;;;;11.05;7.50;;;5.00;99.90;;;;;;4150781;28;20104;-82
2021/01/06 00:19:31;;;;;;;9.05;5.78;;;5.00;99.90;;;;;;4153455;28;20732;-82
2021/01/06 00:21:32;;;;;;;11.13;6.93;;;5.00;99.90;;;;;;4177989;28;20033;-82
2021/01/06 00:23:33;;;;;;;8.57;6.50;;;5.00;99.90;;;;;;4179229;28;20033;-83
2021/01/06 00:26:05;;;;;;;10.73;6.80;;;5.00;99.90;;;;;;4145635;28;20075;-82
2021/01/06 00:28:17;;;;;;;10.73;6.75;;;5.00;99.90;;;;;;4167943;28;20481;-82
2021/01/06 00:30:28;;;;;;;10.45;6.63;;;5.00;99.90;;;;;;4178839;28;20494;-82
2021/01/06 00:32:28;;;;;;;7.63;5.80;;;5.00;99.90;;;;;;4178169;28;20152;-83
2021/01/06 00:34:29;;;;;;;10.68;6.78;;;5.00;99.90;;;;;;4158254;28;20124;-82
2021/01/06 00:36:29;;;;;;;10.27;6.70;;;5.10;99.90;;;;;;4177390;28;20021;-82
2021/01/06 00:38:31;;;;;;;9.85;6.57;;;5.00;99.90;;;;;;4160576;28;20032;-82
2021/01/06 00:40:35;;;;;;;8.18;5.90;;;5.10;99.90;;;;;;4160022;28;20525;-82
2021/01/06 00:42:37;;;;;;;10.02;6.60;;;5.00;99.90;;;;;;4153143;28;20038;-82
2021/01/06 00:44:45;;;;;;;8.65;6.15;;;5.00;99.90;;;;;;4176806;28;20028;-82
2021/01/06 00:46:47;;;;;;;10.90;6.80;;;5.10;99.90;;;;;;4145735;28;20197;-82
2021/01/06 00:48:48;;;;;;;9.25;6.38;;;5.10;99.90;;;;;;4166308;28;20596;-82
2021/01/06 00:50:49;;;;;;;8.68;6.18;;;5.00;99.90;;;;;;4147552;28;20168;-82
2021/01/06 00:52:49;;;;;;;10.35;6.78;;;5.10;99.90;;;;;;4165362;28;20057;-82
2021/01/06 00:54:50;;;;;;;8.38;5.90;;;5.10;99.90;;;;;;4164240;28;20209;-82
2021/01/06 00:56:51;;;;;;;12.02;6.80;;;5.00;99.90;;;;;;4148634;28;20045;-82
2021/01/06 00:59:15;;;;;;;8.32;6.13;;;5.10;99.90;;;;;;4147785;28;20564;-82
2021/01/06 01:01:16;;;;;;;8.85;6.50;;;5.10;99.90;;;;;;4146803;28;20029;-82
2021/01/06 01:03:16;;;;;;;9.32;6.57;;;5.00;99.90;;;;;;4157343;28;20037;-82
2021/01/06 01:05:22;;;;;;;11.65;6.68;;;5.10;99.90;;;;;;4153322;28;20036;-82
2021/01/06 01:07:26;;;;;;;9.80;6.90;;;5.00;99.90;;;;;;4150805;28;20033;-82
2021/01/06 01:09:27;;;;;;;12.07;6.68;;;5.00;99.90;;;;;;4158300;28;20061;-82
2021/01/06 01:11:28;;;;;;;8.85;6.10;;;5.00;99.90;;;;;;4171705;28;20482;-82
2021/01/06 01:13:29;;;;;;;9.23;6.18;;;5.00;99.90;;;;;;4161627;28;20029;-82
2021/01/06 01:15:33;;;;;;;9.05;6.70;;;5.00;99.90;;;;;;4161642;28;20025;-82
2021/01/06 01:17:34;;;;;;;8.88;6.15;;;5.00;99.90;;;;;;4164022;28;20040;-82
2021/01/06 01:19:34;;;;;;;8.68;6.22;;;5.00;99.90;;;;;;4170871;28;20116;-82
2021/01/06 01:21:35;;;;;;;9.52;6.63;;;5.00;99.90;;;;;;4160918;28;20421;-82
2021/01/06 01:23:43;;;;;;;10.13;7.32;;;5.00;99.90;;;;;;4148927;28;20030;-82
2021/01/06 01:25:50;;;;;;;11.73;6.35;;;5.00;99.90;;;;;;4149759;28;20375;-82
2021/01/06 01:27:51;;;;;;;10.07;7.10;;;5.00;99.90;;;;;;4168443;28;20133;-82
2021/01/06 01:29:52;;;;;;;9.55;7.15;;;5.00;99.90;;;;;;4159326;28;20460;-82
2021/01/06 01:32:06;;;;;;;9.32;6.35;;;5.00;99.90;;;;;;4144653;28;20026;-82
2021/01/06 01:34:07;;;;;;;10.73;6.68;;;5.00;99.90;;;;;;4181802;28;20593;-82
2021/01/06 01:36:20;;;;;;;10.60;7.03;;;5.00;99.90;;;;;;4157024;28;20026;-82
2021/01/06 01:38:22;;;;;;;;;;;5.00;99.90;;;;;;4174994;28;20123;-82
2021/01/06 01:40:29;;;;;;;10.03;6.83;;;5.00;99.90;;;;;;4146885;28;19952;-82
2021/01/06 01:42:29;;;;;;;12.80;7.28;;;5.00;99.90;;;;;;4144220;28;20327;-82
2021/01/06 01:44:31;;;;;;;9.20;6.82;;;5.00;99.90;;;;;;4160656;28;20030;-82
2021/01/06 01:46:54;;;;;;;9.03;6.40;;;5.00;99.90;;;;;;4160894;28;20021;-82
2021/01/06 01:48:56;;;;;;;11.73;7.50;;;5.00;99.90;;;;;;4167780;28;20084;-82
2021/01/06 01:51:02;;;;;;;11.82;7.90;;;5.00;99.90;;;;;;4163212;28;20036;-82
2021/01/06 01:53:15;;;;;;;11.70;7.38;;;5.00;99.90;;;;;;4162529;28;20037;-82
2021/01/06 01:55:17;;;;;;;12.00;8.10;;;5.00;99.90;;;;;;4160289;28;20033;-82
2021/01/06 01:57:22;;;;;;;11.20;7.43;;;5.00;99.90;;;;;;4147497;28;20641;-82
2021/01/06 01:59:48;;;;;;;10.48;7.65;;;5.00;99.90;;;;;;4165287;28;20072;-82
2021/01/06 02:01:58;;;;;;;10.05;7.35;;;5.00;99.90;;;;;;4144227;28;20109;-82
2021/01/06 02:04:09;;;;;;;10.82;7.53;;;5.00;99.90;;;;;;4154365;28;20025;-82
2021/01/06 02:06:33;;;;;;;9.40;7.13;;;5.00;99.90;;;;;;4146642;28;20413;-82
2021/01/06 02:09:15;;;;;;;11.65;7.35;;;5.00;99.90;;;;;;4159894;28;20575;-82
2021/01/06 02:11:21;;;;;;;10.95;7.53;;;5.00;99.90;;;;;;4159638;28;20028;-82
2021/01/06 02:13:29;;;;;;;9.75;7.05;;;5.00;99.90;;;;;;4167473;28;20132;-82
2021/01/06 02:15:45;;;;;;;10.13;7.30;;;5.00;99.90;;;;;;4144736;28;20032;-82
2021/01/06 02:17:46;;;;;;;9.95;7.65;;;5.00;99.90;;;;;;4162525;28;20040;-82
2021/01/06 02:19:46;;;;;;;11.55;7.45;;;5.00;99.90;;;;;;4158593;28;20108;-82
2021/01/06 02:21:48;;;;;;;11.02;7.68;;;5.00;99.90;;;;;;4151828;28;20041;-82
2021/01/06 02:23:56;;;;;;;11.43;7.70;;;5.00;99.90;;;;;;4166556;28;20080;-82
2021/01/06 02:26:15;;;;;;;10.68;7.00;;;5.00;99.90;;;;;;4159679;28;20264;-82
2021/01/06 02:28:16;;;;;;;12.05;8.00;;;5.00;99.90;;;;;;4175597;28;20021;-82
2021/01/06 02:30:26;;;;;;;10.20;7.05;;;5.00;99.90;;;;;;4154113;28;20080;-82
2021/01/06 02:32:27;;;;;;;11.35;7.60;;;5.00;99.90;;;;;;4151829;28;20025;-82
2021/01/06 02:34:28;;;;;;;10.55;7.78;;;5.00;99.90;;;;;;4146715;28;20525;-82
2021/01/06 02:36:36;;;;;;;11.30;7.88;;;4.90;99.90;;;;;;4160177;28;20030;-83
2021/01/06 02:38:53;;;;;;;12.15;7.80;;;4.90;99.90;;;;;;4161659;28;20036;-83
2021/01/06 02:41:02;;;;;;;10.95;7.60;;;5.00;99.90;;;;;;4162449;28;20044;-82
2021/01/06 02:43:08;;;;;;;10.70;7.95;;;4.90;99.90;;;;;;4170693;28;20033;-82
2021/01/06 02:45:16;;;;;;;11.43;7.40;;;5.00;99.90;;;;;;4159318;28;20596;-82
2021/01/06 02:47:24;;;;;;;12.90;7.90;;;4.90;99.90;;;;;;4160398;28;20108;-82
2021/01/06 02:49:26;;;;;;;12.43;7.95;;;4.90;99.90;;;;;;4154388;28;20050;-82
2021/01/06 02:51:49;;;;;;;9.93;7.17;;;5.00;99.90;;;;;;4160780;28;20037;-82
2021/01/06 02:54:01;;;;;;;12.10;7.68;;;5.00;99.90;;;;;;4169417;28;20263;-82
2021/01/06 02:56:13;;;;;;;11.98;8.05;;;4.90;99.90;;;;;;4155479;28;20370;-82
2021/01/06 02:58:21;;;;;;;12.85;9.15;;;4.90;99.90;;;;;;4149506;28;20218;-82
2021/01/06 03:00:25;;;;;;;14.07;8.88;;;4.90;99.90;;;;;;4132980;28;20037;-82
2021/01/06 03:02:26;;;;;;;12.20;8.10;;;4.90;99.90;;;;;;4169110;28;20155;-82
2021/01/06 03:04:29;;;;;;;14.88;9.05;;;4.90;99.90;;;;;;4157704;28;20050;-82
2021/01/06 03:06:54;;;;;;;11.80;8.98;;;4.90;99.90;;;;;;4153593;28;20044;-82
2021/01/06 03:08:55;;;;;;;13.40;8.85;;;4.90;99.90;;;;;;4172247;28;20040;-83
2021/01/06 03:11:08;;;;;;;11.93;9.07;;;4.90;99.90;;;;;;4173775;28;20064;-80
2021/01/06 03:13:09;;;;;;;;;;;4.90;99.90;;;;;;4158332;28;20103;-80
2021/01/06 03:15:11;;;;;;;13.88;9.35;;;4.90;99.90;;;;;;4155318;28;19909;-82
2021/01/06 03:17:14;;;;;;;11.75;8.25;;;4.90;99.90;;;;;;4172247;28;20099;-82
2021/01/06 03:19:33;;;;;;;11.52;8.60;;;4.80;99.90;;;;;;4158039;28;20043;-82
2021/01/06 03:21:43;;;;;;;12.32;8.75;;;4.90;99.90;;;;;;4194313;28;20086;-82
2021/01/06 03:23:56;;;;;;;12.82;8.80;;;4.90;99.90;;;;;;4173866;28;20576;-82
2021/01/06 03:26:16;;;;;;;13.43;8.30;;;4.90;99.90;;;;;;4173152;28;20083;-82
2021/01/06 03:28:20;;;;;;;12.52;8.90;;;4.90;99.90;;;;;;4155335;28;20533;-82
2021/01/06 03:30:27;;;;;;;14.88;8.68;;;4.80;99.90;;;;;;4166761;28;20104;-82
2021/01/06 03:32:36;;;;;;;12.10;8.73;;;4.90;99.90;;;;;;4179296;28;20045;-82
2021/01/06 03:34:43;;;;;;;12.38;9.15;;;4.90;99.90;;;;;;4160875;28;20030;-82
2021/01/06 03:37:05;;;;;;;13.57;9.40;;;4.90;99.90;;;;;;4176375;28;20115;-82
2021/01/06 03:39:13;;;;;;;11.00;8.15;;;4.90;99.90;;;;;;4151236;28;20128;-83
2021/01/06 03:41:15;;;;;;;12.48;9.18;;;4.90;99.90;;;;;;4162023;28;20076;-83
2021/01/06 03:43:17;;;;;;;17.05;10.27;;;4.90;99.90;;;;;;4162848;28;20041;-83
2021/01/06 03:45:23;;;;;;;16.83;10.32;;;4.90;99.90;;;;;;4165084;28;20033;-83
2021/01/06 03:47:35;;;;;;;13.55;9.30;;;4.90;99.90;;;;;;4146618;28;20034;-82
2021/01/06 03:50:01;;;;;;;16.30;10.63;;;4.90;99.90;;;;;;4173812;28;20036;-82
2021/01/06 03:52:18;;;;;;;15.18;10.15;;;4.90;99.90;;;;;;4178766;28;20048;-82
2021/01/06 03:55:02;;;;;;;15.88;10.30;;;4.90;99.90;;;;;;4149649;28;20086;-82
2021/01/06 03:57:05;;;;;;;14.13;9.73;;;4.90;99.90;;;;;;4170708;28;20022;-82
2021/01/06 03:59:12;;;;;;;13.73;9.32;;;4.90;99.90;;;;;;4146945;28;20038;-82
2021/01/06 04:01:21;;;;;;;14.48;9.20;;;4.80;99.90;;;;;;4167886;28;20115;-82
2021/01/06 04:03:42;;;;;;;11.93;8.63;;;4.80;99.90;;;;;;4172422;28;20057;-82
2021/01/06 04:05:45;;;;;;;12.75;8.77;;;4.90;99.90;;;;;;4169439;28;20040;-82
2021/01/06 04:07:50;;;;;;;13.85;10.00;;;4.90;99.90;;;;;;4157822;28;20486;-82
2021/01/06 04:10:08;;;;;;;12.13;9.25;;;4.90;99.90;;;;;;4160966;28;20045;-82
2021/01/06 04:12:12;;;;;;;13.60;9.55;;;4.90;99.90;;;;;;4151741;28;20111;-82
2021/01/06 04:14:38;;;;;;;12.23;9.13;;;4.80;99.90;;;;;;4146383;28;20446;-82
2021/01/06 04:16:39;;;;;;;13.90;9.70;;;4.90;99.90;;;;;;4156289;28;20036;-82
2021/01/06 04:18:42;;;;;;;16.52;9.63;;;4.90;99.90;;;;;;4148223;28;20125;-82
2021/01/06 04:20:43;;;;;;;13.57;9.50;;;4.80;99.90;;;;;;4188130;28;20090;-82
2021/01/06 04:22:57;;;;;;;14.27;9.25;;;4.80;99.90;;;;;;4157937;28;20132;-82
2021/01/06 04:25:00;;;;;;;12.30;9.35;;;4.90;99.90;;;;;;4147543;28;20034;-82
2021/01/06 04:27:00;;;;;;;14.75;9.80;;;4.80;99.90;;;;;;4161316;28;20053;-82
2021/01/06 04:29:10;;;;;;;12.68;8.98;;;4.80;99.90;;;;;;4167731;28;20038;-82
2021/01/06 04:31:19;;;;;;;17.05;9.77;;;4.80;99.90;;;;;;4168943;28;20071;-82
2021/01/06 04:33:25;;;;;;;14.02;9.18;;;4.80;99.90;;;;;;4171875;28;20036;-82
2021/01/06 04:35:41;;;;;;;15.20;9.50;;;4.80;99.90;;;;;;4171162;28;21069;-82
2021/01/06 04:37:42;;;;;;;13.10;9.60;;;4.80;99.90;;;;;;4156117;28;20463;-82
2021/01/06 04:39:42;;;;;;;15.25;9.80;;;4.80;99.90;;;;;;4165863;28;20063;-83
2021/01/06 04:42:03;;;;;;;14.57;9.80;;;4.80;99.90;;;;;;4169922;28;20452;-82
2021/01/06 04:44:28;;;;;;;13.43;9.23;;;4.80;99.90;;;;;;4160431;28;20359;-82
2021/01/06 04:46:48;;;;;;;12.27;9.77;;;4.80;99.90;;;;;;4153516;28;20022;-82
2021/01/06 04:48:54;;;;;;;12.90;9.30;;;4.80;99.90;;;;;;4165969;28;20047;-83
2021/01/06 04:51:14;;;;;;;14.45;9.40;;;4.80;99.90;;;;;;4165468;28;20108;-82
2021/01/06 04:53:57;;;;;;;15.23;9.75;;;4.80;99.90;;;;;;4163750;28;20025;-82
2021/01/06 04:56:25;;;;;;;12.35;9.10;;;4.80;99.90;;;;;;4148381;28;20504;-82
2021/01/06 04:58:45;;;;;;;11.55;8.55;;;4.80;99.90;;;;;;4167114;28;20037;-82
2021/01/06 05:01:13;;;;;;;12.20;8.57;;;4.80;99.90;;;;;;4159795;28;20037;-82
2021/01/06 05:03:27;;;;;;;13.32;8.63;;;4.80;99.90;;;;;;4138713;28;20079;-82
2021/01/06 05:06:11;;;;;;;11.55;9.00;;;4.80;99.90;;;;;;4178188;28;20094;-82
2021/01/06 05:08:30;;;;;;;;;;;4.80;99.90;;;;;;4169142;28;20090;-82
2021/01/06 05:10:39;;;;;;;15.05;9.05;;;4.80;99.90;;;;;;4171765;28;19983;-82
2021/01/06 05:12:49;;;;;;;13.38;9.50;;;4.80;99.90;;;;;;4171738;28;20025;-82
2021/01/06 05:15:00;;;;;;;10.45;8.10;;;4.80;99.90;;;;;;4144902;28;20037;-82
2021/01/06 05:17:00;;;;;;;13.13;8.73;;;4.80;99.90;;;;;;4168892;28;20067;-82
2021/01/06 05:19:04;;;;;;;10.55;7.55;;;4.80;99.90;;;;;;4159377;28;20485;-82
2021/01/06 05:21:41;;;;;;;12.80;8.98;;;4.80;99.90;;;;;;4170187;28;20036;-82
2021/01/06 05:23:43;;;;;;;12.75;8.48;;;4.80;99.90;;;;;;4166489;28;20029;-82
2021/01/06 05:25:44;;;;;;;11.13;7.93;;;4.80;99.90;;;;;;4161339;28;20029;-82
2021/01/06 05:27:46;;;;;;;10.10;7.45;;;4.80;99.90;;;;;;4189095;28;20021;-82
2021/01/06 05:29:53;;;;;;;10.70;7.70;;;4.80;99.90;;;;;;4177514;28;20049;-82
2021/01/06 05:31:54;;;;;;;13.20;8.15;;;4.80;99.90;;;;;;4177377;28;20144;-82
2021/01/06 05:34:07;;;;;;;10.35;8.00;;;4.80;99.90;;;;;;4172673;28;20412;-82
2021/01/06 05:36:29;;;;;;;11.93;8.00;;;4.80;99.90;;;;;;4178722;28;20084;-82
2021/01/06 05:38:30;;;;;;;11.23;8.38;;;4.80;99.90;;;;;;4173769;28;20021;-82
2021/01/06 05:40:35;;;;;;;13.80;8.80;;;4.80;99.90;;;;;;4170125;28;20030;-82
2021/01/06 05:42:52;;;;;;;10.48;7.78;;;4.80;99.90;;;;;;4170279;28;20037;-82
2021/01/06 05:45:00;;;;;;;11.98;8.18;;;4.80;99.90;;;;;;4164918;28;20048;-82
2021/01/06 05:47:00;;;;;;;11.70;8.20;;;4.90;99.90;;;;;;4153560;28;20448;-83
2021/01/06 05:49:16;;;;;;;10.65;7.45;;;4.90;99.90;;;;;;4163848;28;20033;-82
2021/01/06 05:51:19;;;;;;;12.40;8.35;;;4.90;99.90;;;;;;4166417;28;20493;-82
2021/01/06 05:53:58;;;;;;;11.13;8.43;;;4.80;99.90;;;;;;4149319;28;20521;-82
2021/01/06 05:56:04;;;;;;;11.48;8.43;;;4.80;99.90;;;;;;4144739;28;20478;-82
2021/01/06 05:58:17;;;;;;;11.50;8.15;;;4.80;99.90;;;;;;4147213;28;20478;-82
2021/01/06 06:00:45;;;;;;;10.57;7.97;;;4.80;99.90;;;;;;4142532;28;20507;-82
2021/01/06 06:03:14;;;;;;;11.65;9.07;;;4.80;99.90;;;;;;4140650;28;20033;-83
2021/01/06 06:05:37;;;;;;;12.07;8.23;;;4.90;99.90;;;;;;4157976;28;20041;-83
2021/01/06 06:07:56;;;;;;;13.48;7.95;;;4.90;99.90;;;;;;4143275;28;20037;-82
2021/01/06 06:10:35;;;;;;;10.65;8.30;;;4.90;99.90;;;;;;4156873;28;20500;-83
2021/01/06 06:12:38;;;;;;;12.70;8.45;;;4.90;99.90;;;;;;4099622;28;20038;-83
2021/01/06 06:15:21;;;;;;;12.48;9.10;;;4.90;99.90;;;;;;4169722;28;20041;-82
2021/01/06 06:17:59;;;;;;;11.18;8.40;;;4.80;99.90;;;;;;4150476;28;20069;-82
2021/01/06 06:20:41;;;;;;;11.80;8.43;;;4.90;99.90;;;;;;4157355;28;20025;-83
2021/01/06 06:22:56;;;;;;;12.52;8.70;;;4.90;99.90;;;;;;4146346;28;20173;-82
2021/01/06 06:25:22;;;;;;;14.85;7.85;;;4.80;99.90;;;;;;4148795;28;20030;-82
2021/01/06 06:28:00;;;;;;;12.27;8.98;;;4.80;99.90;;;;;;4141458;28;20037;-82
2021/01/06 06:30:10;;;;;;;12.95;9.32;;;4.90;99.90;;;;;;4168369;28;20045;-82
2021/01/06 06:32:11;;;;;;;11.82;8.80;;;4.80;99.90;;;;;;4149817;28;20505;-82
2021/01/06 06:34:13;;;;;;;12.70;8.95;;;4.80;99.90;;;;;;4176684;28;20033;-82
2021/01/06 06:36:20;;;;;;;;;;;4.90;99.90;;;;;;4154164;28;20025;-82
2021/01/06 06:38:35;;;;;;;11.73;8.45;;;4.80;99.90;;;;;;4152961;28;19959;-82
2021/01/06 06:41:00;;;;;;;13.20;9.07;;;4.80;99.90;;;;;;4132707;28;20033;-82
2021/01/06 06:43:26;;;;;;;13.90;9.52;;;4.80;99.90;;;;;;4164363;28;20048;-82
2021/01/06 06:45:50;;;;;;;14.88;9.63;;;4.80;99.90;;;;;;4152657;28;20045;-82
2021/01/06 06:47:51;;;;;;;14.38;9.13;;;4.80;99.90;;;;;;4150876;28;20494;-82
2021/01/06 06:50:29;;;;;;;17.38;9.25;;;4.80;99.90;;;;;;4172339;28;20108;-82
2021/01/06 06:53:12;;;;;;;13.90;9.60;;;4.80;99.90;;;;;;4195421;28;20392;-82
2021/01/06 06:55:48;;;;;;;16.27;8.80;;;4.80;99.90;;;;;;4166902;28;20052;-82
2021/01/06 06:58:12;;;;;;;11.88;8.60;;;4.80;99.90;;;;;;4174850;28;20119;-82
2021/01/06 07:00:26;;;;;;;13.23;9.02;;;4.80;99.90;;;;;;4161986;28;20106;-82
2021/01/06 07:02:27;;;;;;;12.38;8.65;;;4.80;99.90;;;;;;4176993;28;20056;-82
2021/01/06 07:04:43;;;;;;;15.23;9.52;;;4.80;99.90;;;;;;4146874;28;20373;-82
2021/01/06 07:06:55;;;;;;;11.60;8.43;;;4.80;99.90;;;;;;4160831;28;20029;-82
2021/01/06 07:09:06;;;;;;;11.93;8.77;;;4.80;99.90;;;;;;4175124;28;20059;-82
2021/01/06 07:11:40;;;;;;;11.27;8.05;;;4.80;99.90;;;;;;4148399;28;20030;-83
2021/01/06 07:13:54;;;;;;;11.55;8.52;;;4.80;99.90;;;;;;4128032;28;20153;-83
2021/01/06 07:16:07;;;;;;;13.90;9.93;;;4.90;99.90;;;;;;4192496;28;20033;-82
2021/01/06 07:18:40;;;;;;;13.18;9.07;;;4.80;99.90;;;;;;4168127;28;20026;-82
2021/01/06 07:23:35;;;;;;;10.90;7.88;;;4.80;99.90;;;;;;4171333;28;20159;-82
2021/01/06 07:25:56;;;;;;;14.93;9.35;;;4.80;99.90;;;;;;4169263;28;20029;-82
2021/01/06 07:28:02;;;;;;;12.07;8.82;;;4.80;99.90;;;;;;4171297;28;20045;-82
2021/01/06 07:30:05;;;;;;;15.93;9.40;;;4.80;99.90;;;;;;4152298;28;20033;-82
2021/01/06 07:32:12;;;;;;;12.55;8.80;;;4.80;99.90;;;;;;4155029;28;20476;-82
2021/01/06 07:34:44;;;;;;;11.85;9.02;;;4.80;99.90;;;;;;4154215;28;20037;-82
2021/01/06 07:37:05;;;;;;;11.80;9.13;;;4.80;99.90;;;;;;4129983;28;20033;-82
2021/01/06 07:39:29;;;;;;;11.77;8.98;;;4.80;99.90;;;;;;4162107;28;20044;-82
2021/01/06 07:41:42;;;;;;;13.88;9.65;;;4.80;99.90;;;;;;4161951;28;20026;-82
2021/01/06 07:44:15;;;;;;;11.32;8.48;;;4.80;99.90;;;;;;4161024;28;20078;-83
2021/01/06 07:46:28;;;;;;;12.57;9.30;;;4.80;99.90;;;;;;4155439;28;20466;-83
2021/01/06 07:49:01;;;;;;;13.30;10.35;;;4.80;99.90;;;;;;4174799;28;20021;-82
2021/01/06 07:51:20;;;;;;;13.93;10.50;;;4.80;99.90;;;;;;4144231;28;20144;-82
2021/01/06 07:53:21;;;;;;;14.00;10.45;;;4.80;99.90;;;;;;4157124;28;20033;-82
2021/01/06 07:55:52;;;;;;;13.68;9.93;;;4.80;99.90;;;;;;4164287;28;20036;-82
2021/01/06 07:58:16;;;;;;;13.55;9.40;;;4.80;99.90;;;;;;4156509;28;20546;-82
2021/01/06 08:00:29;;;;;;;14.20;10.38;;;4.80;99.90;;;;;;4170131;28;20376;-82
2021/01/06 08:02:41;;;;;;;13.13;10.63;;;4.80;99.90;;;;;;4148616;28;20042;-82
2021/01/06 08:05:13;;;;;;;14.98;10.63;;;4.80;99.90;;;;;;4171876;28;20287;-83
2021/01/06 08:07:19;;;;;;;13.40;10.57;;;4.80;99.90;;;;;;4176573;28;20037;-83
2021/01/06 08:09:49;;;;;;;18.13;10.77;;;4.80;99.90;;;;;;4156839;28;20525;-83
2021/01/06 08:11:51;;;;;;;14.30;10.32;;;4.80;99.90;;;;;;4168701;28;20044;-83
2021/01/06 08:13:53;;;;;;;12.90;9.50;;;4.70;99.90;;;;;;4168300;28;20048;-83
2021/01/06 08:16:38;;;;;;;14.95;10.25;;;4.80;99.90;;;;;;4146794;28;20116;-83
2021/01/06 08:19:09;;;;;;;13.35;9.65;;;4.70;99.90;;;;;;4166215;28;20029;-83
2021/01/06 08:21:30;;;;;;;14.65;10.93;;;4.70;99.90;;;;;;4169648;28;20025;-83
2021/01/06 08:24:00;;;;;;;13.90;9.93;;;4.70;99.90;;;;;;4150075;28;20046;-82
2021/01/06 08:26:28;;;;;;;16.73;10.80;;;4.70;99.90;;;;;;4168693;28;20038;-82
2021/01/06 08:28:44;;;;;;;15.13;10.70;;;4.70;99.90;;;;;;4174297;28;20032;-82
2021/01/06 08:31:09;;;;;;;17.58;12.10;;;4.70;99.90;;;;;;4173187;28;20108;-82
2021/01/06 08:33:19;;;;;;;17.25;11.38;;;4.70;99.90;;;;;;4151672;28;20037;-82
2021/01/06 08:35:32;;;;;;;17.73;11.38;;;4.60;99.90;;;;;;4148766;28;20057;-82
2021/01/06 08:37:50;;;;;;;17.65;12.15;;;4.60;99.90;;;;;;4167316;28;20048;-82
2021/01/06 08:39:58;;;;;;;17.25;11.38;;;4.70;99.90;;;;;;4165541;28;20042;-83
2021/01/06 08:42:36;;;;;;;14.60;10.45;;;4.60;99.90;;;;;;4157007;28;20062;-83
2021/01/06 08:44:46;;;;;;;17.25;11.73;;;4.60;99.90;;;;;;4151620;28;20061;-83
2021/01/06 08:46:58;;;;;;;16.27;10.38;;;4.70;99.90;;;;;;4160428;28;20030;-82
2021/01/06 08:49:36;;;;;;;16.27;11.02;;;4.70;99.90;;;;;;4194781;28;20074;-81
2021/01/06 08:51:38;;;;;;;16.17;10.98;;;4.70;99.90;;;;;;4170777;28;20037;-81
2021/01/06 08:53:41;;;;;;;15.15;10.38;;;4.70;99.90;;;;;;4169065;28;20123;-81
2021/01/06 08:56:00;;;;;;;17.50;11.40;;;4.70;99.90;;;;;;4167662;28;20596;-82
2021/01/06 08:58:16;;;;;;;17.33;11.68;;;4.70;99.90;;;;;;4171107;28;20060;-81
2021/01/06 09:00:38;;;;;;;15.57;10.95;;;4.70;99.90;;;;;;4169905;28;20060;-82
2021/01/06 09:02:48;;;;;;;16.30;10.90;;;4.70;99.90;;;;;;4162476;28;20405;-81
2021/01/06 09:04:56;;;;;;;18.48;11.88;;;4.70;99.90;;;;;;4174589;28;20085;-81
2021/01/06 09:07:03;;;;;;;16.20;11.38;;;4.70;99.90;;;;;;4149365;28;20301;-81
2021/01/06 09:09:03;;;;;;;15.80;10.98;;;4.80;99.90;;;;;;4170328;28;21939;-81
2021/01/06 09:11:21;;;;;;;18.48;13.10;;;4.80;99.90;;;;;;4148778;28;20048;-81
2021/01/06 09:13:31;;;;;;;20.13;11.32;;;4.80;99.90;;;;;;4173257;28;20051;-81
2021/01/06 09:15:56;;;;;;;19.85;10.98;;;4.80;99.90;;;;;;4171973;28;20108;-81
2021/01/06 09:18:26;;;;;;;16.75;10.98;;;4.80;99.90;;;;;;4162249;28;20053;-81
2021/01/06 09:21:10;;;;;;;20.08;12.13;;;4.80;99.90;;;;;;4173322;28;20063;-81
2021/01/06 09:23:17;;;;;;;17.38;11.50;;;4.70;99.90;;;;;;4165440;28;20049;-81
2021/01/06 09:25:31;;;;;;;17.92;11.60;;;4.70;99.90;;;;;;4154780;28;20025;-81
2021/01/06 09:27:50;;;;;;;21.20;13.35;;;4.80;99.90;;;;;;4148430;28;20109;-81
2021/01/06 09:29:55;;;;;;;19.08;12.13;;;4.80;99.90;;;;;;4188755;28;20545;-85
2021/01/06 09:31:59;;;;;;;19.00;12.43;;;4.80;99.90;;;;;;4154170;28;20033;-82
2021/01/06 09:34:00;;;;;;;18.05;12.18;;;4.80;99.90;;;;;;4146574;28;20053;-81
2021/01/06 09:36:02;;;;;;;17.23;11.82;;;4.80;99.90;;;;;;4173071;28;20029;-81
2021/01/06 09:38:18;;;;;;;18.95;12.30;;;4.80;99.90;;;;;;4168536;28;20048;-81
2021/01/06 09:40:21;;;;;;;17.58;11.77;;;4.70;99.90;;;;;;4139290;28;20125;-81
2021/01/06 09:42:23;;;;;;;15.38;11.07;;;4.80;99.90;;;;;;4177442;28;20063;-81
2021/01/06 09:44:35;;;;;;;;;;;4.80;99.90;;;;;;4157328;28;20025;-81
2021/01/06 09:47:16;;;;;;;16.23;11.20;;;4.80;99.90;;;;;;4169629;28;19908;-81
2021/01/06 09:49:23;;;;;;;19.33;12.10;;;4.80;99.90;;;;;;4147036;28;20034;-81
2021/01/06 09:51:25;;;;;;;17.65;11.45;;;4.80;99.90;;;;;;4164297;28;20480;-81
2021/01/06 09:53:35;;;;;;;17.80;11.52;;;4.80;99.90;;;;;;4167430;28;20037;-81
2021/01/06 09:55:50;;;;;;;21.52;11.90;;;4.80;99.90;;;;;;4164022;28;20083;-81
2021/01/06 09:58:29;;;;;;;19.90;12.00;;;4.80;99.90;;;;;;4168269;28;20029;-81
2021/01/06 10:00:50;;;;;;;17.42;11.35;;;4.80;99.90;;;;;;4115299;28;20041;-81
2021/01/06 10:02:51;;;;;;;14.90;11.15;;;4.90;99.90;;;;;;4155393;28;20050;-81
2021/01/06 10:05:29;;;;;;;16.73;10.55;;;4.90;99.90;;;;;;4165442;28;20060;-81
2021/01/06 10:07:48;;;;;;;17.10;11.52;;;4.90;99.90;;;;;;4169628;28;20462;-81
2021/01/06 10:10:13;;;;;;;14.93;10.07;;;4.90;99.90;;;;;;4159412;28;20036;-81
2021/01/06 10:13:08;;;;;;;18.63;10.52;;;4.90;99.90;;;;;;4149157;28;20084;-81
2021/01/06 10:15:33;;;;;;;15.55;10.05;;;4.90;99.90;;;;;;4096514;28;20511;-81
2021/01/06 10:17:47;;;;;;;15.20;10.18;;;5.00;99.90;;;;;;4145759;28;20029;-81
2021/01/06 10:20:10;;;;;;;17.50;11.27;;;5.00;99.90;;;;;;4162722;28;20117;-81
2021/01/06 10:23:08;;;;;;;14.00;9.75;;;5.00;99.90;;;;;;4151626;28;20057;-81
2021/01/06 10:25:32;;;;;;;15.38;9.93;;;5.00;99.90;;;;;;4094361;28;20091;-82
2021/01/06 10:27:53;;;;;;;12.48;9.45;;;5.00;99.90;;;;;;4112865;28;20121;-81
2021/01/06 10:29:57;;;;;;;14.68;10.02;;;5.00;99.90;;;;;;4133660;28;20463;-81
2021/01/06 10:32:24;;;;;;;16.35;10.20;;;5.00;99.90;;;;;;4146110;28;20026;-81
2021/01/06 10:34:48;;;;;;;12.40;8.85;;;5.00;99.90;;;;;;4175378;28;20052;-81
2021/01/06 10:37:03;;;;;;;13.45;9.45;;;5.00;99.90;;;;;;4153334;28;20029;-81
2021/01/06 10:39:38;;;;;;;11.73;8.40;;;5.10;99.90;;;;;;4148704;28;20320;-82
2021/01/06 10:41:40;;;;;;;13.57;9.60;;;5.10;99.90;;;;;;4088060;29;20043;-82
2021/01/06 10:43:45;;;;;;;;;;;5.10;99.90;;;;;;4158216;28;20049;-82
2021/01/06 10:45:47;;;;;;;15.38;9.38;;;5.20;99.90;;;;;;4161568;28;19916;-81
2021/01/06 10:47:50;;;;;;;17.45;11.25;;;5.10;99.90;;;;;;4145252;28;20037;-81
2021/01/06 10:49:56;;;;;;;16.92;10.45;;;5.20;99.90;;;;;;4151515;28;20042;-81
2021/01/06 10:52:05;;;;;;;14.88;9.75;;;5.20;99.90;;;;;;4160602;28;20135;-81
2021/01/06 10:54:06;;;;;;;17.65;10.63;;;5.20;99.90;;;;;;4144040;28;20032;-81
2021/01/06 10:56:15;;;;;;;14.77;10.52;;;5.20;99.90;;;;;;4154804;28;20451;-81
2021/01/06 10:58:28;;;;;;;13.77;10.20;;;5.20;99.90;;;;;;4169337;28;20079;-81
2021/01/06 11:00:47;;;;;;;14.65;10.07;;;5.10;99.90;;;;;;4143730;28;20030;-82
2021/01/06 11:03:01;;;;;;;17.20;12.30;;;5.20;99.90;;;;;;4164169;28;20041;-81
2021/01/06 11:05:27;;;;;;;18.48;11.45;;;5.20;99.90;;;;;;4168371;28;20043;-81
2021/01/06 11:08:01;;;;;;;19.88;12.30;;;5.20;99.90;;;;;;4146597;28;20386;-81
2021/01/06 11:10:32;;;;;;;19.17;12.02;;;5.20;99.90;;;;;;4163005;28;20037;-81
2021/01/06 11:13:12;;;;;;;17.65;11.50;;;5.20;99.90;;;;;;4172233;28;20052;-81
2021/01/06 11:15:41;;;;;;;16.95;11.63;;;5.20;99.90;;;;;;4148209;28;20409;-81
2021/01/06 11:17:44;;;;;;;18.10;10.52;;;5.20;99.90;;;;;;4160232;28;20070;-81
2021/01/06 11:20:14;;;;;;;13.48;9.45;;;5.20;99.90;;;;;;4150877;28;20036;-82
2021/01/06 11:22:45;;;;;;;12.55;8.95;;;5.10;99.90;;;;;;4143174;28;20046;-82
2021/01/06 11:25:14;;;;;;;12.48;7.57;;;5.20;99.90;;;;;;4163021;28;20045;-82
2021/01/06 11:28:00;;;;;;;10.82;7.35;;;5.10;99.90;;;;;;4119565;28;20083;-82
2021/01/06 11:30:19;;;;;;;14.88;10.45;;;5.10;99.90;;;;;;4166742;28;20036;-82
2021/01/06 11:32:36;;;;;;;13.60;9.60;;;5.10;99.90;;;;;;4162689;28;20030;-82
2021/01/06 11:34:52;;;;;;;15.13;9.93;;;5.00;99.90;;;;;;4170808;28;20052;-82
2021/01/06 11:37:00;;;;;;;15.43;10.05;;;5.00;99.90;;;;;;4170812;28;20104;-82
2021/01/06 11:39:09;;;;;;;18.20;10.55;;;4.90;99.90;;;;;;4173903;28;20052;-82